createdAt,value
2018-07-31T00:01:20.113Z,23.36
2018-07-31T00:03:47.994Z,23.37
2018-07-31T00:06:17.866Z,23.38
2018-07-31T00:08:47.132Z,23.37
2018-07-31T00:11:15.063Z,23.35
2018-07-31T00:13:42.986Z,23.29
2018-07-31T00:16:11.542Z,23.26
2018-07-31T00:18:39.493Z,23.26
2018-07-31T00:21:07.635Z,23.27
2018-07-31T00:23:36.696Z,23.26
2018-07-31T00:26:04.875Z,23.22
2018-07-31T00:28:32.719Z,23.20
2018-07-31T00:31:00.880Z,23.19
2018-07-31T00:33:28.685Z,23.29
2018-07-31T00:35:56.637Z,23.27
2018-07-31T00:38:24.856Z,23.30
2018-07-31T00:40:52.867Z,23.30
2018-07-31T00:43:20.777Z,23.30
2018-07-31T00:45:48.758Z,23.32
2018-07-31T00:48:16.796Z,23.25
2018-07-31T00:50:45.050Z,23.31
2018-07-31T00:53:13.079Z,23.32
2018-07-31T00:55:40.904Z,23.28
2018-07-31T00:58:08.744Z,23.30
2018-07-31T01:00:37.061Z,23.36
2018-07-31T01:03:05.097Z,23.37
2018-07-31T01:05:33.014Z,23.35
2018-07-31T01:08:00.950Z,23.36
2018-07-31T01:10:28.998Z,23.37
2018-07-31T01:12:57.376Z,23.29
2018-07-31T01:15:25.375Z,23.27
2018-07-31T01:17:53.424Z,23.20
2018-07-31T01:20:21.484Z,23.15
2018-07-31T01:22:49.686Z,23.19
2018-07-31T01:25:17.734Z,23.15
2018-07-31T01:27:45.554Z,23.12
2018-07-31T01:30:13.577Z,23.09
2018-07-31T01:32:41.514Z,23.06
2018-07-31T01:35:09.509Z,23.00
2018-07-31T01:37:37.616Z,23.02
2018-07-31T01:40:05.489Z,23.05
2018-07-31T01:42:33.351Z,23.05
2018-07-31T01:45:01.384Z,23.12
2018-07-31T01:47:29.319Z,23.19
2018-07-31T01:49:57.255Z,23.19
2018-07-31T01:52:25.371Z,23.14
2018-07-31T01:54:53.371Z,23.12
2018-07-31T01:57:21.380Z,23.09
2018-07-31T01:59:49.326Z,23.17
2018-07-31T02:02:17.300Z,23.18
2018-07-31T02:04:45.283Z,23.15
2018-07-31T02:07:13.331Z,23.08
2018-07-31T02:09:41.463Z,23.05
2018-07-31T02:12:09.547Z,23.02
2018-07-31T02:14:37.587Z,22.99
2018-07-31T02:17:05.811Z,23.01
2018-07-31T02:19:34.051Z,23.00
2018-07-31T02:22:02.667Z,22.99
2018-07-31T02:24:30.619Z,22.98
2018-07-31T02:26:58.841Z,22.87
2018-07-31T02:29:35.636Z,22.78
2018-07-31T02:32:03.667Z,22.75
2018-07-31T02:34:31.724Z,22.72
2018-07-31T02:37:00.151Z,22.70
2018-07-31T02:39:28.054Z,22.61
2018-07-31T02:41:56.120Z,22.63
2018-07-31T02:44:24.239Z,22.62
2018-07-31T02:46:52.532Z,22.61
2018-07-31T02:49:21.077Z,22.57
2018-07-31T02:51:50.537Z,22.48
2018-07-31T02:54:19.735Z,22.35
2018-07-31T02:56:47.811Z,22.29
2018-07-31T02:59:15.906Z,22.26
2018-07-31T03:01:44.049Z,22.25
2018-07-31T03:04:12.029Z,22.29
2018-07-31T03:06:40.212Z,22.28
2018-07-31T03:09:15.616Z,22.30
2018-07-31T03:11:44.796Z,22.28
2018-07-31T03:14:15.963Z,22.27
2018-07-31T03:16:44.179Z,22.19
2018-07-31T03:19:17.398Z,22.15
2018-07-31T03:21:51.846Z,22.20
2018-07-31T03:24:19.982Z,22.21
2018-07-31T03:26:48.033Z,22.21
2018-07-31T03:29:15.956Z,22.21
2018-07-31T03:31:49.503Z,22.22
2018-07-31T03:34:18.033Z,22.20
2018-07-31T03:36:52.706Z,22.20
2018-07-31T03:39:24.080Z,22.21
2018-07-31T03:41:51.957Z,22.26
2018-07-31T03:44:20.114Z,22.31
2018-07-31T03:46:48.264Z,22.34
2018-07-31T03:49:19.600Z,22.40
2018-07-31T03:51:51.383Z,22.42
2018-07-31T03:54:19.272Z,22.49
2018-07-31T03:56:47.351Z,22.48
2018-07-31T03:59:15.871Z,22.50
2018-07-31T04:01:43.930Z,22.46
2018-07-31T04:04:11.907Z,22.48
2018-07-31T04:06:39.803Z,22.53
2018-07-31T04:09:09.823Z,22.58
2018-07-31T04:11:37.887Z,22.53
2018-07-31T04:14:06.074Z,22.64
2018-07-31T04:16:34.188Z,22.67
2018-07-31T04:19:02.158Z,22.83
2018-07-31T04:21:30.064Z,22.85
2018-07-31T04:23:58.338Z,22.88
2018-07-31T04:26:26.189Z,22.98
2018-07-31T04:28:54.575Z,23.01
2018-07-31T04:31:22.512Z,23.05
2018-07-31T04:33:50.547Z,23.04
2018-07-31T04:36:20.538Z,23.07
2018-07-31T04:38:48.613Z,23.10
2018-07-31T04:41:16.815Z,23.11
2018-07-31T04:43:44.836Z,23.12
2018-07-31T04:46:12.970Z,23.19
2018-07-31T04:48:40.949Z,23.25
2018-07-31T04:51:08.899Z,23.29
2018-07-31T04:53:36.838Z,23.28
2018-07-31T04:56:04.984Z,23.31
2018-07-31T04:58:33.411Z,23.24
2018-07-31T05:01:01.420Z,23.29
2018-07-31T05:03:29.498Z,23.43
2018-07-31T05:05:57.624Z,23.41
2018-07-31T05:08:25.742Z,23.38
2018-07-31T05:10:53.596Z,23.41
2018-07-31T05:13:21.683Z,23.41
2018-07-31T05:15:49.660Z,23.40
2018-07-31T05:18:17.957Z,23.33
2018-07-31T05:20:46.476Z,23.23
2018-07-31T05:23:14.479Z,23.42
2018-07-31T05:25:42.454Z,23.45
2018-07-31T05:28:10.433Z,23.51
2018-07-31T05:30:38.517Z,23.55
2018-07-31T05:33:06.515Z,23.49
2018-07-31T05:35:34.823Z,23.70
2018-07-31T05:38:02.903Z,23.84
2018-07-31T05:40:31.959Z,24.03
2018-07-31T05:43:00.062Z,24.13
2018-07-31T05:45:28.122Z,24.26
2018-07-31T05:47:56.127Z,24.34
2018-07-31T05:50:23.954Z,24.46
2018-07-31T05:52:51.878Z,24.53
2018-07-31T05:55:19.751Z,24.54
2018-07-31T05:57:47.579Z,24.63
2018-07-31T06:00:15.376Z,24.71
2018-07-31T06:02:43.124Z,24.79
2018-07-31T06:05:10.904Z,24.94
2018-07-31T06:07:38.847Z,25.03
2018-07-31T06:10:07.456Z,25.19
2018-07-31T06:12:35.390Z,25.32
2018-07-31T06:15:03.476Z,25.45
2018-07-31T06:17:31.467Z,25.47
2018-07-31T06:19:59.399Z,25.55
2018-07-31T06:22:27.191Z,25.66
2018-07-31T06:24:55.125Z,25.71
2018-07-31T06:27:23.506Z,25.77
2018-07-31T06:29:51.352Z,25.96
2018-07-31T06:32:19.178Z,26.10
2018-07-31T06:34:47.174Z,26.27
2018-07-31T06:37:15.044Z,26.35
2018-07-31T06:39:42.918Z,26.44
2018-07-31T06:42:10.891Z,26.43
2018-07-31T06:44:38.730Z,26.56
2018-07-31T06:47:06.576Z,26.64
2018-07-31T06:49:34.777Z,26.71
2018-07-31T06:52:02.636Z,26.77
2018-07-31T06:54:30.420Z,26.69
2018-07-31T06:56:58.355Z,26.78
2018-07-31T06:59:26.287Z,26.86
2018-07-31T07:01:54.188Z,26.69
2018-07-31T07:04:21.967Z,26.83
2018-07-31T07:06:49.650Z,27.06
2018-07-31T07:09:18.101Z,27.27
2018-07-31T07:11:46.096Z,27.34
2018-07-31T07:14:13.970Z,27.45
2018-07-31T07:16:41.865Z,27.33
2018-07-31T07:19:09.852Z,27.37
2018-07-31T07:21:37.664Z,27.41
2018-07-31T07:24:05.486Z,27.59
2018-07-31T07:26:33.430Z,27.70
2018-07-31T07:29:01.363Z,27.89
2018-07-31T07:31:29.329Z,27.94
2018-07-31T07:33:57.716Z,27.65
2018-07-31T07:36:25.411Z,27.59
2018-07-31T07:38:53.159Z,27.72
2018-07-31T07:41:21.343Z,27.89
2018-07-31T07:43:49.153Z,27.59
2018-07-31T07:46:16.976Z,27.74
2018-07-31T07:48:44.871Z,27.60
2018-07-31T07:51:12.691Z,28.05
2018-07-31T07:53:40.414Z,28.39
2018-07-31T07:56:08.265Z,28.42
2018-07-31T07:58:36.157Z,28.64
2018-07-31T08:01:04.148Z,28.63
2018-07-31T08:03:32.437Z,28.79
2018-07-31T08:06:00.269Z,28.93
2018-07-31T08:08:28.139Z,28.90
2018-07-31T08:10:56.077Z,28.97
2018-07-31T08:13:23.978Z,29.02
2018-07-31T08:15:51.751Z,29.14
2018-07-31T08:18:19.514Z,29.13
2018-07-31T08:20:47.374Z,29.21
2018-07-31T08:23:15.181Z,28.96
2018-07-31T08:25:43.072Z,29.02
2018-07-31T08:28:10.822Z,28.97
2018-07-31T08:30:38.516Z,29.21
2018-07-31T08:33:06.901Z,29.31
2018-07-31T08:35:34.725Z,29.78
2018-07-31T08:39:05.484Z,30.02
2018-07-31T08:41:33.339Z,29.82
2018-07-31T08:44:01.247Z,29.80
2018-07-31T08:46:29.195Z,29.93
2018-07-31T08:48:56.976Z,29.95
2018-07-31T08:51:24.853Z,29.58
2018-07-31T08:53:52.593Z,29.65
2018-07-31T08:56:20.510Z,30.03
2018-07-31T08:58:48.296Z,30.16
2018-07-31T09:01:16.094Z,30.18
2018-07-31T09:03:44.029Z,29.94
2018-07-31T09:06:11.851Z,29.98
2018-07-31T09:08:39.807Z,30.01
2018-07-31T09:11:07.616Z,29.83
2018-07-31T09:13:35.548Z,30.13
2018-07-31T09:16:03.381Z,30.40
2018-07-31T09:18:31.195Z,30.06
2018-07-31T09:20:59.126Z,29.85
2018-07-31T09:23:26.975Z,29.54
2018-07-31T09:25:58.944Z,29.68
2018-07-31T09:28:27.308Z,29.84
2018-07-31T09:31:00.537Z,29.73
2018-07-31T09:33:28.384Z,29.56
2018-07-31T09:35:56.151Z,29.91
2018-07-31T09:39:26.792Z,30.07
2018-07-31T09:41:54.686Z,29.86
2018-07-31T09:44:22.520Z,29.74
2018-07-31T09:46:50.381Z,29.64
2018-07-31T09:49:18.125Z,29.73
2018-07-31T09:51:46.034Z,30.03
2018-07-31T09:54:13.906Z,30.28
2018-07-31T09:56:41.746Z,30.40
2018-07-31T09:59:09.688Z,30.53
2018-07-31T10:01:37.639Z,30.50
2018-07-31T10:04:05.687Z,30.73
2018-07-31T10:06:33.449Z,30.88
2018-07-31T10:09:01.685Z,30.67
2018-07-31T10:11:29.857Z,30.72
2018-07-31T10:13:57.786Z,30.35
2018-07-31T10:16:25.666Z,30.72
2018-07-31T10:18:53.531Z,30.79
2018-07-31T10:21:21.386Z,30.89
2018-07-31T10:23:49.246Z,30.96
2018-07-31T10:26:17.005Z,30.79
2018-07-31T10:28:44.923Z,30.63
2018-07-31T10:31:12.691Z,30.76
2018-07-31T10:33:40.472Z,30.93
2018-07-31T10:36:08.277Z,31.28
2018-07-31T10:38:36.151Z,31.37
2018-07-31T10:41:03.991Z,31.33
2018-07-31T10:43:31.691Z,31.16
2018-07-31T10:46:00.043Z,31.42
2018-07-31T10:49:30.632Z,31.54
2018-07-31T10:51:58.394Z,31.66
2018-07-31T10:54:26.222Z,31.56
2018-07-31T10:56:54.136Z,31.28
2018-07-31T10:59:22.537Z,31.64
2018-07-31T11:01:50.483Z,31.61
2018-07-31T11:04:18.431Z,31.69
2018-07-31T11:06:46.387Z,31.49
2018-07-31T11:09:14.247Z,31.65
2018-07-31T11:11:42.199Z,31.90
2018-07-31T11:14:10.522Z,32.35
2018-07-31T11:16:38.385Z,32.40
2018-07-31T11:19:06.319Z,32.49
2018-07-31T11:21:34.262Z,32.17
2018-07-31T11:24:02.075Z,32.14
2018-07-31T11:26:30.990Z,31.80
2018-07-31T11:28:58.887Z,32.03
2018-07-31T11:31:26.675Z,32.13
2018-07-31T11:33:54.326Z,32.13
2018-07-31T11:36:22.348Z,32.45
2018-07-31T11:38:50.113Z,32.11
2018-07-31T11:41:17.803Z,32.41
2018-07-31T11:43:45.973Z,32.46
2018-07-31T11:46:13.839Z,32.40
2018-07-31T11:48:41.559Z,32.67
2018-07-31T11:51:09.288Z,32.47
2018-07-31T11:53:36.935Z,32.79
2018-07-31T11:56:04.774Z,32.26
2018-07-31T11:58:32.785Z,32.14
2018-07-31T12:01:00.558Z,31.50
2018-07-31T12:03:28.464Z,30.90
2018-07-31T12:05:56.509Z,29.38
2018-07-31T12:08:24.502Z,29.26
2018-07-31T12:10:52.361Z,28.81
2018-07-31T12:13:20.223Z,29.81
2018-07-31T12:15:48.122Z,30.68
2018-07-31T12:18:15.969Z,30.75
2018-07-31T12:20:43.861Z,31.09
2018-07-31T12:23:11.797Z,31.22
2018-07-31T12:25:39.558Z,31.25
2018-07-31T12:28:07.405Z,31.24
2018-07-31T12:30:35.307Z,31.37
2018-07-31T12:33:03.341Z,31.46
2018-07-31T12:35:31.254Z,31.59
2018-07-31T12:37:59.029Z,31.76
2018-07-31T12:40:26.907Z,31.95
2018-07-31T12:42:54.871Z,32.14
2018-07-31T12:45:22.710Z,32.18
2018-07-31T12:47:50.553Z,32.29
2018-07-31T12:50:18.437Z,32.35
2018-07-31T12:52:46.392Z,32.26
2018-07-31T12:55:14.277Z,32.63
2018-07-31T12:57:42.399Z,32.56
2018-07-31T13:00:10.388Z,32.41
2018-07-31T13:02:38.337Z,32.57
2018-07-31T13:05:06.937Z,32.31
2018-07-31T13:07:34.748Z,32.42
2018-07-31T13:10:02.595Z,32.16
2018-07-31T13:12:30.463Z,32.19
2018-07-31T13:14:58.360Z,32.44
2018-07-31T13:17:26.227Z,32.52
2018-07-31T13:19:54.206Z,32.37
2018-07-31T13:22:22.150Z,32.26
2018-07-31T13:24:50.093Z,32.05
2018-07-31T13:27:18.379Z,31.97
2018-07-31T13:29:46.538Z,32.01
2018-07-31T13:32:14.452Z,31.91
2018-07-31T13:34:42.283Z,31.84
2018-07-31T13:37:10.466Z,31.82
2018-07-31T13:39:38.330Z,31.86
2018-07-31T13:42:06.513Z,31.84
2018-07-31T13:44:34.310Z,31.89
2018-07-31T13:47:02.170Z,31.89
2018-07-31T13:49:30.172Z,31.90
2018-07-31T13:51:58.111Z,31.57
2018-07-31T13:54:25.903Z,31.08
2018-07-31T13:56:53.849Z,31.05
2018-07-31T13:59:21.653Z,30.83
2018-07-31T14:01:49.551Z,30.96
2018-07-31T14:04:17.481Z,31.00
2018-07-31T14:06:45.504Z,31.11
2018-07-31T14:09:13.348Z,30.86
2018-07-31T14:11:41.235Z,30.52
2018-07-31T14:14:09.177Z,30.31
2018-07-31T14:16:37.291Z,29.75
2018-07-31T14:19:05.645Z,29.88
2018-07-31T14:21:33.497Z,29.45
2018-07-31T14:24:01.400Z,29.59
2018-07-31T14:26:29.732Z,29.72
2018-07-31T14:28:57.872Z,29.42
2018-07-31T14:31:25.623Z,29.56
2018-07-31T14:33:53.734Z,29.27
2018-07-31T14:36:21.877Z,29.07
2018-07-31T14:38:49.888Z,28.84
2018-07-31T14:41:17.956Z,28.92
2018-07-31T14:43:45.973Z,28.66
2018-07-31T14:46:14.023Z,28.71
2018-07-31T14:48:43.037Z,28.60
2018-07-31T14:51:10.804Z,28.32
2018-07-31T14:53:38.917Z,28.44
2018-07-31T14:56:06.856Z,28.56
2018-07-31T14:58:34.678Z,28.30
2018-07-31T15:01:02.603Z,28.25
2018-07-31T15:03:30.517Z,28.35
2018-07-31T15:05:58.392Z,28.44
2018-07-31T15:08:26.366Z,28.49
2018-07-31T15:10:54.629Z,28.68
2018-07-31T15:13:22.603Z,28.87
2018-07-31T15:15:50.531Z,28.90
2018-07-31T15:18:18.374Z,28.58
2018-07-31T15:20:46.302Z,28.53
2018-07-31T15:23:14.023Z,28.71
2018-07-31T15:25:41.991Z,28.77
2018-07-31T15:28:09.992Z,28.80
2018-07-31T15:30:37.725Z,28.85
2018-07-31T15:33:05.717Z,28.89
2018-07-31T15:35:33.622Z,28.90
2018-07-31T15:38:01.474Z,28.92
2018-07-31T15:40:29.342Z,28.96
2018-07-31T15:42:57.222Z,28.94
2018-07-31T15:45:25.273Z,28.53
2018-07-31T15:47:54.185Z,28.49
2018-07-31T15:50:22.204Z,28.58
2018-07-31T15:52:50.100Z,28.55
2018-07-31T15:55:18.081Z,28.53
2018-07-31T15:57:45.958Z,28.37
2018-07-31T16:00:14.232Z,28.25
2018-07-31T16:02:42.374Z,28.13
2018-07-31T16:05:10.788Z,28.11
2018-07-31T16:07:39.603Z,28.01
2018-07-31T16:10:07.623Z,27.86
2018-07-31T16:12:35.786Z,27.83
2018-07-31T16:15:03.921Z,27.87
2018-07-31T16:17:32.016Z,27.87
2018-07-31T16:20:01.137Z,27.81
2018-07-31T16:22:29.235Z,27.75
2018-07-31T16:24:57.568Z,27.88
2018-07-31T16:27:25.375Z,27.87
2018-07-31T16:29:53.308Z,27.93
2018-07-31T16:32:21.840Z,27.88
2018-07-31T16:34:49.756Z,27.85
2018-07-31T16:37:17.712Z,27.83
2018-07-31T16:39:46.288Z,27.92
2018-07-31T16:42:14.278Z,28.03
2018-07-31T16:44:42.379Z,28.00
2018-07-31T16:47:10.416Z,28.02
2018-07-31T16:49:38.339Z,28.08
2018-07-31T16:52:06.424Z,28.05
2018-07-31T16:54:34.592Z,28.01
2018-07-31T16:57:02.476Z,27.93
2018-07-31T16:59:30.180Z,27.83
2018-07-31T17:01:58.374Z,27.72
2018-07-31T17:04:26.251Z,27.63
2018-07-31T17:06:54.208Z,27.59
2018-07-31T17:09:22.266Z,27.53
2018-07-31T17:11:50.219Z,27.42
2018-07-31T17:14:18.225Z,27.28
2018-07-31T17:16:46.841Z,27.34
2018-07-31T17:19:14.783Z,27.31
2018-07-31T17:21:42.752Z,27.30
2018-07-31T17:24:10.788Z,27.29
2018-07-31T17:26:38.659Z,27.21
2018-07-31T17:29:06.476Z,27.14
2018-07-31T17:31:34.482Z,27.08
2018-07-31T17:34:02.457Z,27.07
2018-07-31T17:36:30.289Z,26.99
2018-07-31T17:38:58.252Z,26.79
2018-07-31T17:41:26.222Z,26.73
2018-07-31T17:43:54.132Z,26.65
2018-07-31T17:46:22.151Z,26.69
2018-07-31T17:48:49.990Z,26.60
2018-07-31T17:51:17.945Z,26.57
2018-07-31T17:53:45.946Z,26.60
2018-07-31T17:56:13.838Z,26.51
2018-07-31T17:58:41.761Z,26.48
2018-07-31T18:01:09.824Z,26.43
2018-07-31T18:03:37.973Z,26.36
2018-07-31T18:06:05.962Z,26.29
2018-07-31T18:15:18.740Z,26.09
2018-07-31T18:17:46.760Z,26.19
2018-07-31T18:20:14.836Z,26.17
2018-07-31T18:22:42.810Z,26.00
2018-07-31T18:25:10.765Z,25.95
2018-07-31T18:27:38.865Z,25.98
2018-07-31T18:30:07.048Z,26.00
2018-07-31T18:32:34.858Z,25.95
2018-07-31T18:35:02.874Z,25.91
2018-07-31T18:37:30.881Z,25.88
2018-07-31T18:39:59.006Z,25.85
2018-07-31T18:42:27.099Z,25.83
2018-07-31T18:44:55.332Z,25.78
2018-07-31T18:47:23.333Z,25.75
2018-07-31T18:49:51.299Z,25.72
2018-07-31T18:52:19.267Z,25.69
2018-07-31T18:54:47.143Z,25.66
2018-07-31T18:57:15.178Z,25.62
2018-07-31T18:59:43.356Z,25.48
2018-07-31T19:02:11.418Z,25.40
2018-07-31T19:04:39.590Z,25.35
2018-07-31T19:07:07.903Z,25.34
2018-07-31T19:09:35.924Z,25.27
2018-07-31T19:12:04.021Z,25.28
2018-07-31T19:14:31.919Z,25.29
2018-07-31T19:16:59.936Z,25.33
2018-07-31T19:19:27.726Z,25.31
2018-07-31T19:21:55.791Z,25.26
2018-07-31T19:24:23.800Z,25.18
2018-07-31T19:26:51.843Z,25.11
2018-07-31T19:29:20.118Z,25.15
2018-07-31T19:31:48.331Z,25.10
2018-07-31T19:34:17.250Z,25.03
2018-07-31T19:36:45.393Z,25.06
2018-07-31T19:39:13.459Z,25.08
2018-07-31T19:41:41.612Z,25.06
2018-07-31T19:44:09.476Z,25.06
2018-07-31T19:46:37.380Z,25.03
2018-07-31T19:49:05.458Z,25.02
2018-07-31T19:51:33.386Z,25.01
2018-07-31T19:54:01.465Z,24.97
2018-07-31T19:56:29.590Z,24.88
2018-07-31T19:58:57.551Z,24.89
2018-07-31T20:01:25.471Z,24.83
2018-07-31T20:03:53.515Z,24.73
2018-07-31T20:06:21.475Z,24.67
2018-07-31T20:08:49.420Z,24.63
2018-07-31T20:11:17.434Z,24.60
2018-07-31T20:13:45.351Z,24.57
2018-07-31T20:16:13.889Z,24.61
2018-07-31T20:18:42.146Z,24.54
2018-07-31T20:21:10.372Z,24.48
2018-07-31T20:23:38.538Z,24.44
2018-07-31T20:26:06.737Z,24.43
2018-07-31T20:28:34.749Z,24.44
2018-07-31T20:31:03.005Z,24.50
2018-07-31T20:33:31.219Z,24.48
2018-07-31T20:35:59.634Z,24.44
2018-07-31T20:38:31.409Z,24.47
2018-07-31T20:41:03.357Z,24.50
2018-07-31T20:43:35.667Z,24.45
2018-07-31T20:46:07.769Z,24.42
2018-07-31T20:48:39.520Z,24.41
2018-07-31T20:51:11.012Z,24.37
2018-07-31T20:53:40.951Z,24.38
2018-07-31T20:56:08.823Z,24.35
2018-07-31T20:58:36.895Z,24.33
2018-07-31T21:01:04.828Z,24.32
2018-07-31T21:03:32.717Z,24.29
2018-07-31T21:12:45.831Z,24.00
2018-07-31T21:15:14.879Z,23.98
2018-07-31T21:17:43.009Z,23.96
2018-07-31T21:20:11.081Z,23.92
2018-07-31T21:22:39.202Z,23.96
2018-07-31T21:25:07.444Z,23.96
2018-07-31T21:27:35.507Z,23.96
2018-07-31T21:30:03.732Z,23.98
2018-07-31T21:32:31.758Z,23.98
2018-07-31T21:34:59.600Z,23.90
2018-07-31T21:37:27.464Z,23.82
2018-07-31T21:39:55.532Z,23.78
2018-07-31T21:42:23.917Z,23.77
2018-07-31T21:44:51.801Z,23.78
2018-07-31T21:47:19.793Z,23.80
2018-07-31T21:49:48.292Z,23.83
2018-07-31T21:52:16.379Z,23.79
2018-07-31T21:54:44.371Z,23.75
2018-07-31T21:57:12.646Z,23.71
2018-07-31T21:59:40.499Z,23.70
2018-07-31T22:02:08.480Z,23.65
2018-07-31T22:04:36.626Z,23.62
2018-07-31T22:07:04.545Z,23.66
2018-07-31T22:09:37.385Z,23.58
2018-07-31T22:12:05.392Z,23.55
2018-07-31T22:14:33.503Z,23.55
2018-07-31T22:17:01.500Z,23.54
2018-07-31T22:19:29.432Z,23.59
2018-07-31T22:21:57.443Z,23.54
2018-07-31T22:24:25.275Z,23.50
2018-07-31T22:26:53.263Z,23.51
2018-07-31T22:36:05.652Z,23.27
2018-07-31T22:38:33.565Z,23.18
2018-07-31T22:41:01.307Z,23.17
2018-07-31T22:43:29.733Z,23.19
2018-07-31T22:45:57.594Z,23.16
2018-07-31T22:48:25.726Z,23.13
2018-07-31T22:50:53.833Z,23.13
2018-07-31T22:53:21.818Z,23.06
2018-07-31T22:55:49.814Z,23.00
2018-07-31T22:58:17.772Z,22.98
2018-07-31T23:00:45.734Z,22.88
2018-07-31T23:03:13.608Z,22.91
2018-07-31T23:05:41.710Z,22.84
2018-07-31T23:08:09.580Z,22.86
2018-07-31T23:10:37.675Z,22.89
2018-07-31T23:13:06.208Z,22.87
2018-07-31T23:15:34.269Z,22.90
2018-07-31T23:18:02.402Z,22.89
2018-07-31T23:20:30.826Z,22.91
2018-07-31T23:22:58.873Z,22.90
2018-07-31T23:25:26.916Z,22.89
2018-07-31T23:27:55.443Z,22.90
2018-07-31T23:30:23.352Z,22.89
2018-07-31T23:32:51.268Z,22.84
2018-07-31T23:35:19.242Z,22.80
2018-07-31T23:37:47.231Z,22.81
2018-07-31T23:40:15.426Z,22.77
2018-07-31T23:42:43.862Z,22.73
2018-07-31T23:45:11.906Z,22.70
2018-07-31T23:47:39.872Z,22.65
2018-07-31T23:50:08.281Z,22.62
2018-07-31T23:52:36.148Z,22.62
2018-07-31T23:55:04.200Z,22.61
2018-07-31T23:57:32.278Z,22.60
